createdAt,value
2022-08-23T00:05:45.670Z,22.30
2022-08-23T00:11:51.765Z,22.20
2022-08-23T00:17:54.044Z,22.20
2022-08-23T00:23:56.517Z,22.10
2022-08-23T00:29:58.850Z,22.10
2022-08-23T00:36:01.601Z,22.10
2022-08-23T00:42:45.167Z,22.10
2022-08-23T00:48:47.513Z,22.10
2022-08-23T00:54:54.243Z,22.00
2022-08-23T01:00:59.127Z,21.90
2022-08-23T01:07:32.466Z,21.90
2022-08-23T01:13:38.848Z,21.90
2022-08-23T01:20:10.324Z,21.80
2022-08-23T01:26:15.921Z,21.90
2022-08-23T01:32:26.122Z,21.80
2022-08-23T01:38:28.464Z,21.80
2022-08-23T01:44:35.759Z,21.80
2022-08-23T01:50:38.749Z,21.70
2022-08-23T01:56:41.975Z,21.70
2022-08-23T02:02:47.390Z,21.70
2022-08-23T02:09:01.453Z,21.70
2022-08-23T02:15:09.353Z,21.70
2022-08-23T02:21:14.219Z,21.70
2022-08-23T02:27:16.731Z,21.60
2022-08-23T02:33:20.704Z,21.70
2022-08-23T02:39:22.921Z,21.60
2022-08-23T02:45:25.152Z,21.60
2022-08-23T02:51:27.632Z,21.50
2022-08-23T02:57:31.585Z,21.50
2022-08-23T03:03:37.771Z,21.50
2022-08-23T03:09:41.117Z,21.50
2022-08-23T03:15:43.482Z,21.50
2022-08-23T03:21:45.976Z,21.50
2022-08-23T03:27:50.974Z,21.50
2022-08-23T03:33:54.030Z,21.50
2022-08-23T03:39:56.372Z,21.50
2022-08-23T03:45:58.658Z,21.60
2022-08-23T03:52:01.583Z,21.60
2022-08-23T03:58:06.797Z,21.70
2022-08-23T04:04:09.406Z,21.80
2022-08-23T04:10:22.033Z,21.90
2022-08-23T04:16:27.013Z,22.10
2022-08-23T04:22:29.131Z,22.30
2022-08-23T04:28:31.563Z,22.40
2022-08-23T04:34:34.668Z,22.70
2022-08-23T04:40:55.717Z,23.00
2022-08-23T04:46:58.111Z,23.00
2022-08-23T04:53:00.679Z,23.40
2022-08-23T04:59:04.673Z,23.50
2022-08-23T05:05:09.754Z,23.80
2022-08-23T05:11:19.340Z,24.30
2022-08-23T05:17:23.139Z,26.20
2022-08-23T05:23:29.340Z,28.80
2022-08-23T05:29:40.898Z,29.70
2022-08-23T05:35:46.394Z,30.70
2022-08-23T05:41:48.827Z,31.20
2022-08-23T05:47:51.196Z,32.60
2022-08-23T05:54:08.939Z,33.60
2022-08-23T06:00:15.593Z,33.90
2022-08-23T06:06:36.431Z,34.60
2022-08-23T06:12:42.133Z,34.20
2022-08-23T06:18:46.092Z,32.10
2022-08-23T06:25:14.756Z,34.20
2022-08-23T06:31:49.082Z,36.40
2022-08-23T06:37:59.173Z,36.10
2022-08-23T06:44:21.001Z,36.60
2022-08-23T06:50:43.431Z,37.70
2022-08-23T06:57:05.616Z,36.90
2022-08-23T07:03:21.372Z,36.70
2022-08-23T07:09:53.336Z,38.50
2022-08-23T07:16:00.802Z,38.00
2022-08-23T07:22:05.902Z,38.60
2022-08-23T07:28:11.641Z,40.60
2022-08-23T07:34:15.784Z,41.00
2022-08-23T07:40:20.554Z,41.10
2022-08-23T07:46:27.808Z,38.40
2022-08-23T07:52:30.775Z,37.40
2022-08-23T07:58:33.607Z,36.60
2022-08-23T08:05:02.234Z,37.60
2022-08-23T08:11:04.999Z,37.90
2022-08-23T08:17:08.915Z,37.80
2022-08-23T08:23:31.443Z,37.00
2022-08-23T08:30:04.107Z,37.50
2022-08-23T08:36:08.625Z,38.40
2022-08-23T08:42:50.378Z,37.20
2022-08-23T08:48:58.716Z,37.30
2022-08-23T08:55:14.440Z,38.10
2022-08-23T09:01:22.221Z,39.20
2022-08-23T09:07:52.276Z,40.50
2022-08-23T09:14:00.338Z,40.60
2022-08-23T09:20:07.253Z,39.00
2022-08-23T09:26:26.891Z,39.70
2022-08-23T09:32:41.472Z,40.50
2022-08-23T09:38:58.048Z,41.30
2022-08-23T09:45:05.422Z,41.70
2022-08-23T09:51:14.483Z,42.60
2022-08-23T09:57:23.073Z,41.30
2022-08-23T10:03:29.558Z,39.00
2022-08-23T10:09:40.002Z,36.50
2022-08-23T10:15:56.145Z,36.90
2022-08-23T10:22:08.737Z,36.60
2022-08-23T10:29:02.423Z,35.40
2022-08-23T10:35:24.046Z,35.30
2022-08-23T10:41:51.505Z,33.50
2022-08-23T10:48:05.129Z,32.30
2022-08-23T10:54:12.892Z,33.80
2022-08-23T11:00:20.282Z,36.20
2022-08-23T11:06:27.159Z,34.00
2022-08-23T11:12:31.666Z,36.60
2022-08-23T11:18:44.627Z,37.20
2022-08-23T11:25:29.930Z,36.00
2022-08-23T11:31:38.259Z,34.60
2022-08-23T11:37:56.238Z,33.40
2022-08-23T11:44:05.191Z,33.90
2022-08-23T11:50:57.849Z,32.80
2022-08-23T11:57:19.193Z,32.50
2022-08-23T12:03:26.684Z,32.90
2022-08-23T12:09:29.233Z,34.10
2022-08-23T12:16:06.561Z,33.60
2022-08-23T12:22:16.966Z,32.20
2022-08-23T12:28:30.347Z,33.60
2022-08-23T12:34:55.266Z,35.90
2022-08-23T12:40:58.318Z,36.00
2022-08-23T12:47:12.079Z,35.20
2022-08-23T12:53:26.223Z,34.90
2022-08-23T12:59:37.018Z,37.50
2022-08-23T13:05:45.978Z,37.00
2022-08-23T13:11:48.707Z,37.10
2022-08-23T13:18:00.389Z,36.50
2022-08-23T13:24:38.306Z,35.40
2022-08-23T13:31:02.453Z,35.40
2022-08-23T13:37:19.504Z,35.20
2022-08-23T13:43:46.435Z,34.30
2022-08-23T13:49:49.307Z,33.50
2022-08-23T13:55:55.716Z,33.40
2022-08-23T14:01:59.155Z,33.00
2022-08-23T14:08:01.497Z,32.80
2022-08-23T14:14:04.802Z,33.10
2022-08-23T14:26:31.450Z,32.90
2022-08-23T14:32:34.186Z,32.80
2022-08-23T14:38:36.464Z,33.00
2022-08-23T14:44:38.674Z,33.00
2022-08-23T14:50:41.615Z,32.60
2022-08-23T14:56:44.217Z,32.40
2022-08-23T15:02:47.888Z,32.20
2022-08-23T15:08:50.305Z,32.30
2022-08-23T15:14:52.982Z,31.60
2022-08-23T15:20:56.498Z,31.60
2022-08-23T15:27:01.426Z,31.50
2022-08-23T15:33:04.025Z,31.20
2022-08-23T15:39:06.778Z,30.90
2022-08-23T15:45:10.013Z,30.60
2022-08-23T15:51:12.435Z,30.30
2022-08-23T15:57:17.490Z,30.00
2022-08-23T16:03:21.743Z,29.70
2022-08-23T16:09:24.986Z,29.50
2022-08-23T16:15:27.438Z,29.30
2022-08-23T16:21:31.208Z,29.20
2022-08-23T16:27:33.933Z,28.90
2022-08-23T16:33:36.145Z,28.70
2022-08-23T16:39:38.508Z,28.60
2022-08-23T16:45:40.945Z,28.60
2022-08-23T16:51:43.706Z,28.60
2022-08-23T16:57:46.094Z,28.50
2022-08-23T17:03:49.173Z,28.40
2022-08-23T17:09:51.602Z,28.30
2022-08-23T17:15:53.835Z,28.30
2022-08-23T17:21:56.014Z,28.00
2022-08-23T17:27:59.146Z,25.40
2022-08-23T17:34:03.445Z,24.30
2022-08-23T17:40:09.677Z,23.80
2022-08-23T17:46:11.941Z,23.40
2022-08-23T17:52:14.416Z,23.30
2022-08-23T17:58:16.528Z,23.20
2022-08-23T18:04:18.686Z,23.00
2022-08-23T18:10:21.271Z,22.90
2022-08-23T18:16:23.757Z,22.90
2022-08-23T18:22:26.783Z,23.20
2022-08-23T18:28:29.492Z,23.40
2022-08-23T18:34:33.925Z,23.70
2022-08-23T18:40:45.479Z,23.80
2022-08-23T18:46:47.969Z,23.20
2022-08-23T18:52:50.080Z,22.70
2022-08-23T18:58:52.955Z,22.10
2022-08-23T19:04:55.969Z,21.70
2022-08-23T19:10:58.207Z,21.60
2022-08-23T19:17:02.289Z,21.60
2022-08-23T19:23:04.926Z,21.50
2022-08-23T19:29:08.929Z,21.40
2022-08-23T19:35:13.366Z,21.30
2022-08-23T19:41:15.542Z,21.30
2022-08-23T19:47:20.269Z,21.40
2022-08-23T19:53:24.003Z,21.50
2022-08-23T19:59:28.305Z,21.60
2022-08-23T20:05:32.271Z,20.00
2022-08-23T20:11:34.826Z,19.40
2022-08-23T20:17:37.619Z,19.50
2022-08-23T20:23:58.307Z,19.50
2022-08-23T20:30:01.940Z,19.70
2022-08-23T20:36:04.842Z,19.80
2022-08-23T20:42:07.119Z,20.00
2022-08-23T20:48:11.139Z,20.20
2022-08-23T20:54:13.731Z,20.30
2022-08-23T21:00:16.144Z,20.30
2022-08-23T21:06:45.250Z,20.20
2022-08-23T21:12:48.865Z,20.30
2022-08-23T21:18:51.091Z,20.30
2022-08-23T21:24:56.925Z,20.20
2022-08-23T21:31:15.312Z,20.10
2022-08-23T21:37:17.799Z,20.00
2022-08-23T21:43:19.839Z,20.10
2022-08-23T21:49:23.410Z,20.00
2022-08-23T21:55:35.257Z,20.00
2022-08-23T22:01:39.507Z,19.80
2022-08-23T22:07:41.634Z,19.80
2022-08-23T22:13:44.061Z,19.80
2022-08-23T22:19:46.110Z,19.90
2022-08-23T22:25:48.614Z,19.90
2022-08-23T22:31:50.720Z,19.90
2022-08-23T22:38:14.417Z,19.90
2022-08-23T22:44:15.685Z,19.90
2022-08-23T22:50:17.817Z,19.90
2022-08-23T22:56:24.375Z,19.90
2022-08-23T23:02:28.498Z,20.00
2022-08-23T23:08:31.175Z,20.10
2022-08-23T23:14:33.956Z,20.10
2022-08-23T23:20:42.229Z,20.10
2022-08-23T23:26:47.758Z,20.10
2022-08-23T23:32:50.153Z,20.20
2022-08-23T23:38:52.938Z,20.20
2022-08-23T23:44:55.357Z,20.30
2022-08-23T23:50:57.695Z,20.20
2022-08-23T23:57:00.433Z,20.20
